Time;durP1;ratioP1;P1;durP2;ratioP2;P2;SDS_P1;SDS_P2;PMS_P1;PMS_P2;Temp;Humidity;BMP_temperature;BMP_pressure;BME280_temperature;BME280_humidity;BME280_pressure;Samples;Min_cycle;Max_cycle;Signal;HPM_P1;HPM_P2
2024/01/28 00:00:24;;;;;;;18.75;6.93;;;;;;;4.93;73.06;103607.41;7392220;19;20015;-56
2024/01/28 00:02:54;;;;;;;18.50;6.35;;;;;;;5.01;72.70;103589.88;7391127;19;20018;-58
2024/01/28 00:05:25;;;;;;;16.33;6.88;;;;;;;4.93;72.53;103586.41;7387810;19;20022;-59
2024/01/28 00:07:56;;;;;;;20.83;7.28;;;;;;;4.94;72.63;103584.66;7391227;19;20025;-60
2024/01/28 00:10:29;;;;;;;23.02;9.10;;;;;;;4.89;72.87;103584.69;7391849;19;20040;-59
2024/01/28 00:12:59;;;;;;;35.20;12.75;;;;;;;4.85;72.96;103577.69;7391196;19;20362;-58
2024/01/28 00:15:36;;;;;;;29.35;13.20;;;;;;;4.87;72.89;103582.03;7389445;19;20102;-57
2024/01/28 00:18:07;;;;;;;32.45;13.27;;;;;;;4.78;73.11;103578.59;7390791;19;20015;-59
2024/01/28 00:20:39;;;;;;;35.33;15.15;;;;;;;4.80;73.08;103579.44;7391494;19;20007;-59
2024/01/28 00:23:10;;;;;;;38.42;17.65;;;;;;;4.75;73.11;103584.72;7393004;19;20014;-59
2024/01/28 00:25:43;;;;;;;38.85;17.98;;;;;;;4.74;72.99;103577.75;7396155;19;20018;-60
2024/01/28 00:28:13;;;;;;;32.55;16.02;;;;;;;4.69;73.38;103568.97;7397883;19;20044;-59
2024/01/28 00:30:44;;;;;;;30.52;13.00;;;;;;;4.73;73.24;103567.22;7397154;19;20371;-60
2024/01/28 00:33:15;;;;;;;24.08;10.23;;;;;;;4.74;72.88;103551.50;7396870;19;20036;-60
2024/01/28 00:35:46;;;;;;;25.02;8.50;;;;;;;4.76;73.17;103562.84;7395534;19;20028;-60
2024/01/28 00:38:17;;;;;;;20.65;8.32;;;;;;;4.63;73.29;103553.28;7396791;19;20029;-60
2024/01/28 00:40:48;;;;;;;18.77;7.18;;;;;;;4.75;73.18;103547.97;7398782;19;20018;-59
2024/01/28 00:43:18;;;;;;;19.85;7.00;;;;;;;4.66;73.03;103536.66;7397679;19;20014;-60
2024/01/28 00:45:49;;;;;;;16.73;6.93;;;;;;;4.76;72.89;103538.34;7395090;19;20048;-59
2024/01/28 00:48:20;;;;;;;16.38;6.35;;;;;;;4.66;73.18;103531.41;7397825;19;20487;-60
2024/01/28 00:50:51;;;;;;;19.05;6.35;;;;;;;4.69;73.40;103531.38;7397981;19;20026;-59
2024/01/28 00:53:22;;;;;;;20.08;7.05;;;;;;;4.62;73.05;103520.06;7397660;19;20019;-59
2024/01/28 00:55:53;;;;;;;17.25;6.68;;;;;;;4.63;73.48;103534.91;7397724;19;20097;-59
2024/01/28 00:58:24;;;;;;;22.80;7.13;;;;;;;4.66;73.45;103537.53;7396283;19;20018;-59
2024/01/28 01:00:55;;;;;;;12.70;5.90;;;;;;;4.76;72.94;103540.97;7397490;19;20022;-60
2024/01/28 01:03:26;;;;;;;16.20;6.80;;;;;;;4.78;72.78;103541.84;7396755;19;20023;-60
2024/01/28 01:05:57;;;;;;;16.08;6.60;;;;;;;4.62;73.54;103539.28;7397205;19;20048;-60
2024/01/28 01:08:32;;;;;;;18.17;6.20;;;;;;;4.70;73.30;103544.50;7396827;19;20026;-59
2024/01/28 01:11:05;;;;;;;18.33;6.93;;;;;;;4.65;73.05;103535.75;7397871;19;20031;-60
2024/01/28 01:13:40;;;;;;;20.13;7.43;;;;;;;4.60;73.15;103529.66;7395169;19;20096;-60
2024/01/28 01:16:10;;;;;;;20.02;6.90;;;;;;;4.54;73.34;103524.44;7395298;19;20482;-59
2024/01/28 01:18:43;;;;;;;18.42;6.50;;;;;;;4.66;73.60;103531.41;7396186;19;20025;-60
2024/01/28 01:21:14;;;;;;;16.30;6.85;;;;;;;4.62;73.65;103535.81;7396847;19;20014;-60
2024/01/28 01:23:45;;;;;;;19.98;6.63;;;;;;;4.65;73.64;103533.13;7394592;19;20011;-59
2024/01/28 01:26:15;;;;;;;20.40;6.97;;;;;;;4.58;73.48;103531.44;7395245;19;20073;-60
2024/01/28 01:28:46;;;;;;;18.05;6.60;;;;;;;4.28;73.98;103506.19;7393094;19;20015;-59
2024/01/28 01:31:17;;;;;;;17.90;6.93;;;;;;;4.32;74.37;103521.03;7396461;19;20025;-60
2024/01/28 01:33:47;;;;;;;19.33;6.88;;;;;;;4.46;73.74;103539.34;7394153;19;20040;-61
2024/01/28 01:36:19;;;;;;;17.80;6.93;;;;;;;4.38;74.23;103534.09;7396252;19;20405;-57
2024/01/28 01:38:50;;;;;;;14.98;6.50;;;;;;;4.26;74.72;103539.38;7394838;19;20561;-58
2024/01/28 01:41:23;;;;;;;18.58;7.25;;;;;;;4.06;74.92;103524.56;7396064;19;20475;-59
2024/01/28 01:43:53;;;;;;;16.42;6.57;;;;;;;3.92;75.67;103535.06;7394198;19;20035;-60
2024/01/28 01:46:24;;;;;;;16.88;6.68;;;;;;;3.77;76.17;103528.97;7395299;19;20010;-58
2024/01/28 01:48:56;;;;;;;20.13;7.07;;;;;;;3.88;75.92;103537.69;7395091;19;20050;-58
2024/01/28 01:51:27;;;;;;;18.10;6.70;;;;;;;3.86;75.93;103532.47;7395288;19;20054;-59
2024/01/28 01:53:59;;;;;;;16.63;6.07;;;;;;;3.72;75.99;103535.97;7394067;19;20015;-59
2024/01/28 01:56:37;;;;;;;20.92;6.88;;;;;;;3.68;76.47;103537.72;7395605;19;20018;-57
2024/01/28 01:59:09;;;;;;;17.90;7.05;;;;;;;3.71;76.07;103542.97;7393461;19;20344;-59
2024/01/28 02:01:42;;;;;;;19.80;7.30;;;;;;;3.66;76.91;103542.06;7396948;19;20019;-60
2024/01/28 02:04:13;;;;;;;17.52;7.18;;;;;;;3.56;76.78;103530.72;7393760;19;20515;-59
2024/01/28 02:06:44;;;;;;;19.05;6.85;;;;;;;3.53;76.77;103525.47;7395155;19;20023;-61
2024/01/28 02:09:15;;;;;;;19.00;7.20;;;;;;;3.49;76.88;103534.22;7394678;19;20014;-61
2024/01/28 02:11:46;;;;;;;20.15;7.38;;;;;;;3.54;76.73;103535.06;7394124;19;20014;-59
2024/01/28 02:14:24;;;;;;;15.05;7.05;;;;;;;3.55;76.17;103535.94;7393548;19;20030;-59
2024/01/28 02:16:55;;;;;;;18.88;7.03;;;;;;;3.23;76.93;103533.31;7394398;19;20429;-60
2024/01/28 02:19:28;;;;;;;16.90;6.60;;;;;;;3.12;77.79;103530.66;7393097;19;20029;-57
2024/01/28 02:21:59;;;;;;;18.70;7.82;;;;;;;3.09;77.69;103526.31;7394876;19;20018;-60
2024/01/28 02:24:34;;;;;;;16.52;7.05;;;;;;;3.23;77.41;103528.06;7392782;19;20467;-60
2024/01/28 02:27:05;;;;;;;20.98;7.68;;;;;;;3.18;77.62;103523.69;7394438;19;20026;-59
2024/01/28 02:29:40;;;;;;;17.35;6.85;;;;;;;3.07;77.10;103528.03;7394100;19;20010;-60
2024/01/28 02:32:15;;;;;;;17.95;7.00;;;;;;;3.00;77.72;103518.41;7393724;19;20014;-61
2024/01/28 02:34:45;;;;;;;20.30;7.32;;;;;;;2.89;77.97;103514.88;7392046;19;20044;-59
2024/01/28 02:37:16;;;;;;;19.17;7.43;;;;;;;2.71;78.05;103502.66;7392659;19;20426;-60
2024/01/28 02:39:46;;;;;;;21.98;7.18;;;;;;;2.79;78.62;103510.53;7391797;19;20018;-60
2024/01/28 02:42:17;;;;;;;18.58;7.10;;;;;;;2.84;77.58;103506.16;7393369;19;20010;-59
2024/01/28 02:44:48;;;;;;;16.77;6.72;;;;;;;2.84;77.57;103501.78;7390682;19;20018;-59
2024/01/28 02:47:18;;;;;;;17.13;7.60;;;;;;;2.67;77.99;103486.06;7392876;19;20014;-59
2024/01/28 02:49:49;;;;;;;16.50;7.07;;;;;;;2.79;77.91;103495.69;7393525;19;20095;-59
2024/01/28 02:52:20;;;;;;;20.65;7.75;;;;;;;2.81;78.20;103482.59;7392649;19;20020;-60
2024/01/28 02:54:50;;;;;;;17.52;6.72;;;;;;;3.04;77.02;103486.13;7391270;19;20098;-58
2024/01/28 02:57:21;;;;;;;16.55;7.53;;;;;;;3.11;77.26;103501.00;7393247;19;20018;-60
2024/01/28 02:59:51;;;;;;;18.85;7.68;;;;;;;2.99;77.33;103493.13;7391602;19;20051;-58
2024/01/28 03:02:22;;;;;;;20.63;8.43;;;;;;;2.92;77.79;103493.97;7393512;19;20025;-61
2024/01/28 03:04:52;;;;;;;21.17;7.95;;;;;;;2.86;77.95;103480.84;7391070;19;20030;-60
2024/01/28 03:07:23;;;;;;;19.90;8.00;;;;;;;2.96;77.68;103481.75;7393336;19;20106;-58
2024/01/28 03:09:54;;;;;;;16.98;7.85;;;;;;;2.90;77.35;103480.00;7392888;19;20018;-60
2024/01/28 03:12:24;;;;;;;18.67;7.47;;;;;;;2.88;77.56;103480.00;7392990;19;20018;-60
2024/01/28 03:14:55;;;;;;;21.98;7.97;;;;;;;2.87;77.51;103478.25;7391063;19;20405;-60
2024/01/28 03:17:25;;;;;;;18.92;7.60;;;;;;;2.88;78.23;103480.00;7392228;19;20018;-60
2024/01/28 03:19:56;;;;;;;20.10;8.45;;;;;;;2.93;78.15;103480.88;7390862;19;20019;-60
2024/01/28 03:22:27;;;;;;;22.15;8.05;;;;;;;2.91;78.17;103477.41;7392222;19;20336;-58
2024/01/28 03:24:57;;;;;;;18.25;7.93;;;;;;;3.11;77.43;103466.94;7390561;19;20031;-60
2024/01/28 03:27:30;;;;;;;22.38;8.18;;;;;;;3.18;77.43;103460.84;7392325;19;20018;-58
2024/01/28 03:30:01;;;;;;;21.08;8.45;;;;;;;3.32;76.88;103454.75;7392401;19;20491;-60
2024/01/28 03:32:37;;;;;;;23.83;7.90;;;;;;;3.21;76.97;103451.28;7391142;19;20045;-60
2024/01/28 03:35:11;;;;;;;16.45;7.47;;;;;;;3.07;76.77;103446.88;7390154;19;20033;-59
2024/01/28 03:37:46;;;;;;;22.13;7.90;;;;;;;2.94;77.74;103442.50;7391753;19;20011;-58
2024/01/28 03:40:17;;;;;;;19.35;7.95;;;;;;;2.84;77.98;103439.00;7390339;19;20014;-58
2024/01/28 03:42:49;;;;;;;21.85;8.00;;;;;;;2.78;77.92;103432.88;7391857;19;20022;-60
2024/01/28 03:45:20;;;;;;;16.98;7.63;;;;;;;2.77;78.29;103444.22;7390414;19;20060;-60
2024/01/28 03:47:53;;;;;;;21.70;8.33;;;;;;;2.78;78.16;103444.19;7392091;19;20022;-60
2024/01/28 03:50:24;;;;;;;18.88;7.53;;;;;;;2.82;78.11;103437.22;7391838;19;20018;-60
2024/01/28 03:52:56;;;;;;;20.20;8.32;;;;;;;2.74;77.95;103445.06;7391434;19;20017;-60
2024/01/28 03:55:26;;;;;;;20.00;7.90;;;;;;;2.73;78.34;103445.06;7389503;19;20015;-60
2024/01/28 03:57:56;;;;;;;20.67;7.78;;;;;;;2.82;77.67;103442.47;7403373;19;20022;-60
2024/01/28 04:00:29;;;;;;;20.25;8.10;;;;;;;2.82;77.95;103434.63;7404903;19;20093;-58
2024/01/28 04:03:01;;;;;;;17.70;6.95;;;;;;;2.65;77.87;103417.16;7405649;19;20351;-60
2024/01/28 04:05:38;;;;;;;15.02;7.40;;;;;;;2.53;79.00;103432.81;7403285;19;20022;-58
2024/01/28 04:08:11;;;;;;;19.80;7.72;;;;;;;2.55;78.97;103436.28;7404369;19;20023;-59
2024/01/28 04:10:43;;;;;;;15.55;7.38;;;;;;;2.50;78.68;103430.19;7405710;19;20040;-60
2024/01/28 04:13:13;;;;;;;18.02;7.97;;;;;;;2.44;78.75;103427.53;7405349;19;20017;-56
2024/01/28 04:15:44;;;;;;;20.95;7.57;;;;;;;2.50;78.67;103429.31;7403047;19;20022;-58
2024/01/28 04:18:17;;;;;;;16.35;8.00;;;;;;;2.42;78.23;103422.31;7405608;19;20052;-60
2024/01/28 04:20:48;;;;;;;16.80;6.95;;;;;;;2.34;78.79;103418.81;7405660;19;20019;-61
2024/01/28 04:23:21;;;;;;;19.10;7.90;;;;;;;2.35;79.17;103417.06;7405783;19;20025;-61
2024/01/28 04:25:51;;;;;;;19.50;7.68;;;;;;;2.41;78.69;103412.72;7402836;19;20018;-62
2024/01/28 04:28:23;;;;;;;17.25;7.53;;;;;;;2.34;78.84;103400.50;7405252;19;20018;-62
2024/01/28 04:30:53;;;;;;;20.27;7.85;;;;;;;2.22;78.97;103407.44;7405411;19;20025;-62
2024/01/28 04:33:24;;;;;;;13.68;6.80;;;;;;;2.40;78.89;103400.53;7404904;19;20022;-65
2024/01/28 04:35:54;;;;;;;20.95;7.63;;;;;;;2.47;78.61;103414.47;7404748;19;20039;-61
2024/01/28 04:38:25;;;;;;;19.85;7.57;;;;;;;2.49;78.72;103410.16;7404815;19;20007;-64
2024/01/28 04:40:55;;;;;;;17.58;7.65;;;;;;;2.79;77.80;103400.63;7404557;19;20022;-65
2024/01/28 04:43:25;;;;;;;17.50;7.30;;;;;;;2.73;77.39;103409.31;7404994;19;20034;-64
2024/01/28 04:45:55;;;;;;;18.95;7.03;;;;;;;2.56;77.68;103403.19;7404535;19;20368;-63
2024/01/28 04:48:26;;;;;;;17.25;7.10;;;;;;;2.49;78.25;103402.28;7405015;19;20022;-61
2024/01/28 04:50:56;;;;;;;19.73;7.90;;;;;;;2.48;78.10;103400.56;7404805;19;20022;-61
2024/01/28 04:53:27;;;;;;;18.27;7.32;;;;;;;2.54;78.21;103404.91;7404053;19;20010;-64
2024/01/28 04:55:57;;;;;;;16.92;6.95;;;;;;;2.54;78.09;103400.56;7404211;19;20030;-62
2024/01/28 04:58:28;;;;;;;16.95;6.80;;;;;;;2.61;77.74;103393.59;7404510;19;20014;-61
2024/01/28 05:00:58;;;;;;;16.75;6.70;;;;;;;2.54;78.00;103389.22;7405085;19;20022;-60
2024/01/28 05:03:33;;;;;;;15.10;6.18;;;;;;;2.48;78.29;103390.09;7404217;19;20274;-61
2024/01/28 05:06:04;;;;;;;19.92;6.72;;;;;;;2.63;77.92;103384.00;7403739;19;20047;-59
2024/01/28 05:08:39;;;;;;;18.83;7.25;;;;;;;2.55;77.93;103386.59;7399260;19;20022;-60
2024/01/28 05:11:09;;;;;;;19.27;7.00;;;;;;;2.50;78.27;103387.47;7397005;19;20018;-60
2024/01/28 05:13:40;;;;;;;16.98;7.20;;;;;;;2.51;78.31;103382.22;7395947;19;20019;-60
2024/01/28 05:16:11;;;;;;;16.27;6.88;;;;;;;2.46;78.13;103380.50;7396897;19;20019;-61
2024/01/28 05:18:41;;;;;;;19.13;7.13;;;;;;;2.41;78.43;103377.88;7396873;19;20052;-62
2024/01/28 05:21:12;;;;;;;18.92;7.13;;;;;;;2.39;78.43;103390.06;7396995;19;20014;-62
2024/01/28 05:23:42;;;;;;;18.33;7.30;;;;;;;2.33;78.59;103383.09;7395941;19;20047;-60
2024/01/28 05:26:14;;;;;;;17.90;6.57;;;;;;;2.31;78.81;103374.34;7396793;19;20022;-59
2024/01/28 05:28:47;;;;;;;16.58;7.13;;;;;;;2.25;79.04;103370.81;7396629;19;20036;-61
2024/01/28 05:31:17;;;;;;;18.00;7.15;;;;;;;2.22;79.23;103370.84;7396437;19;20023;-59
2024/01/28 05:33:48;;;;;;;22.00;7.10;;;;;;;2.44;78.90;103373.53;7395041;19;20018;-60
2024/01/28 05:36:19;;;;;;;17.42;6.38;;;;;;;2.78;77.51;103370.94;7396137;19;20021;-60
2024/01/28 05:38:49;;;;;;;19.08;7.03;;;;;;;2.68;76.79;103372.69;7394077;19;20021;-61
2024/01/28 05:41:20;;;;;;;19.70;6.65;;;;;;;2.42;77.33;103377.00;7396012;19;20507;-59
2024/01/28 05:43:51;;;;;;;18.15;6.68;;;;;;;2.19;78.01;103379.53;7395474;19;20117;-60
2024/01/28 05:46:21;;;;;;;17.15;6.68;;;;;;;2.07;78.96;103375.13;7396906;19;20527;-60
2024/01/28 05:48:53;;;;;;;14.80;6.15;;;;;;;2.03;78.87;103380.34;7395961;19;20347;-59
2024/01/28 05:51:25;;;;;;;18.13;6.43;;;;;;;2.07;79.45;103377.75;7396565;19;20579;-58
2024/01/28 05:53:56;;;;;;;19.80;6.85;;;;;;;1.95;79.36;103372.47;7394750;19;20023;-58
2024/01/28 05:56:26;;;;;;;13.20;6.30;;;;;;;2.12;78.66;103380.38;7395979;19;20019;-59
2024/01/28 05:58:57;;;;;;;17.65;6.10;;;;;;;2.00;79.03;103383.81;7395710;19;20122;-58
2024/01/28 06:01:31;;;;;;;18.00;6.88;;;;;;;2.10;79.07;103376.88;7395671;19;20019;-60
2024/01/28 06:04:02;;;;;;;15.95;5.35;;;;;;;2.25;79.09;103374.34;7394305;19;20039;-58
2024/01/28 06:06:38;;;;;;;17.80;6.20;;;;;;;2.49;78.39;103367.44;7394456;19;20055;-59
2024/01/28 06:09:11;;;;;;;17.75;6.05;;;;;;;2.48;78.05;103363.94;7395448;19;20034;-60
2024/01/28 06:11:46;;;;;;;14.32;5.20;;;;;;;2.55;78.49;103365.69;7393853;19;20014;-59
2024/01/28 06:14:16;;;;;;;16.75;5.25;;;;;;;2.49;77.95;103376.16;7394086;19;20483;-58
2024/01/28 06:16:47;;;;;;;14.50;5.75;;;;;;;2.41;78.43;103378.75;7395232;19;20526;-58
2024/01/28 06:19:17;;;;;;;15.13;6.03;;;;;;;2.49;78.51;103376.16;7394491;19;20022;-59
2024/01/28 06:21:48;;;;;;;15.07;5.95;;;;;;;2.47;77.84;103379.63;7392889;19;20022;-59
2024/01/28 06:24:19;;;;;;;14.52;5.10;;;;;;;2.40;77.84;103381.34;7393489;19;20418;-58
2024/01/28 06:26:49;;;;;;;16.27;5.32;;;;;;;2.27;78.35;103375.19;7394650;19;20022;-59
2024/01/28 06:29:24;;;;;;;17.80;5.63;;;;;;;2.12;78.86;103362.94;7394477;19;20043;-58
2024/01/28 06:31:54;;;;;;;17.35;5.07;;;;;;;2.15;79.27;103367.31;7394591;19;20043;-58
2024/01/28 06:34:25;;;;;;;13.63;4.90;;;;;;;2.27;79.05;103369.09;7392959;19;20359;-59
2024/01/28 06:36:55;;;;;;;11.63;4.82;;;;;;;2.34;78.52;103350.81;7394440;19;20055;-59
2024/01/28 06:39:26;;;;;;;17.73;5.60;;;;;;;2.55;78.55;103357.84;7393896;19;20018;-58
2024/01/28 06:41:57;;;;;;;17.98;4.82;;;;;;;2.89;77.52;103355.25;7393977;19;20014;-59
2024/01/28 06:44:34;;;;;;;15.60;5.07;;;;;;;2.97;76.64;103358.75;7393123;19;20120;-60
2024/01/28 06:47:06;;;;;;;13.35;4.30;;;;;;;2.86;76.93;103360.47;7394363;19;20026;-58
2024/01/28 06:49:39;;;;;;;14.00;4.60;;;;;;;2.77;77.33;103350.03;7392437;19;20047;-59
2024/01/28 06:52:10;;;;;;;19.60;4.75;;;;;;;2.70;77.65;103351.75;7394518;19;20022;-60
2024/01/28 06:54:41;;;;;;;11.02;4.20;;;;;;;2.82;77.24;103348.28;7392193;19;20018;-62
2024/01/28 06:57:16;;;;;;;15.80;4.60;;;;;;;2.94;76.34;103340.44;7394055;19;20019;-61
2024/01/28 06:59:47;;;;;;;18.15;4.72;;;;;;;2.84;76.81;103339.56;7393953;19;20018;-62
2024/01/28 07:02:17;;;;;;;17.77;4.40;;;;;;;2.67;77.42;103331.72;7393913;19;20573;-59
2024/01/28 07:04:47;;;;;;;13.90;4.60;;;;;;;2.62;77.71;103336.06;7391693;19;20018;-58
2024/01/28 07:07:18;;;;;;;13.35;4.25;;;;;;;2.80;76.89;103340.44;7393342;19;20369;-59
2024/01/28 07:09:49;;;;;;;15.43;4.43;;;;;;;2.52;77.41;103342.16;7393794;19;20018;-61
2024/01/28 07:12:20;;;;;;;14.52;5.07;;;;;;;2.50;78.25;103340.41;7393375;19;20018;-62
2024/01/28 07:14:50;;;;;;;17.38;4.80;;;;;;;2.81;76.82;103330.84;7392259;19;20027;-61
2024/01/28 07:17:21;;;;;;;12.57;4.60;;;;;;;2.75;76.73;103334.34;7393598;19;20019;-64
2024/01/28 07:19:51;;;;;;;11.55;4.30;;;;;;;2.85;75.93;103328.22;7393676;19;20007;-62
2024/01/28 07:22:22;;;;;;;13.13;5.20;;;;;;;2.46;76.81;103329.06;7392954;19;20039;-62
2024/01/28 07:24:53;;;;;;;14.80;5.18;;;;;;;2.29;77.33;103335.97;7391234;19;20014;-62
2024/01/28 07:27:23;;;;;;;17.95;4.97;;;;;;;2.25;78.23;103334.22;7392981;19;20040;-60
2024/01/28 07:29:55;;;;;;;16.92;5.57;;;;;;;2.07;78.60;103330.72;7389752;19;20014;-62
2024/01/28 07:32:25;;;;;;;14.48;5.50;;;;;;;2.20;78.63;103327.25;7391190;19;20026;-62
2024/01/28 07:34:56;;;;;;;18.63;5.10;;;;;;;2.15;78.26;103331.59;7388776;19;20561;-62
2024/01/28 07:37:26;;;;;;;14.30;5.35;;;;;;;1.91;79.17;103335.00;7392123;19;20022;-63
2024/01/28 07:39:57;;;;;;;16.98;5.15;;;;;;;1.89;79.25;103333.25;7391328;19;20015;-63
2024/01/28 07:42:27;;;;;;;13.15;4.68;;;;;;;1.89;79.70;103322.78;7391896;19;20019;-63
2024/01/28 07:44:57;;;;;;;13.15;5.07;;;;;;;1.94;79.31;103326.28;7390577;19;20026;-63
2024/01/28 07:47:31;;;;;;;13.10;5.30;;;;;;;2.14;79.05;103329.88;7391391;19;20022;-63
2024/01/28 07:50:03;;;;;;;15.75;5.30;;;;;;;2.19;78.56;103327.25;7393789;19;20181;-62
2024/01/28 07:52:41;;;;;;;15.57;5.18;;;;;;;2.24;78.69;103316.81;7392320;19;20368;-62
2024/01/28 07:55:11;;;;;;;14.85;5.55;;;;;;;2.37;78.26;103324.69;7392199;19;20086;-62
2024/01/28 07:57:44;;;;;;;15.73;5.27;;;;;;;2.37;78.19;103318.59;7393664;19;20022;-63
2024/01/28 08:00:15;;;;;;;14.80;5.78;;;;;;;2.46;78.47;103321.22;7391475;19;20021;-62
2024/01/28 08:02:45;;;;;;;14.90;5.93;;;;;;;2.43;77.90;103313.34;7390302;19;20022;-62
2024/01/28 08:05:15;;;;;;;64.40;28.60;;;;;;;2.56;78.14;103315.13;7389727;19;20047;-62
2024/01/28 08:07:45;;;;;;;43.42;29.50;;;;;;;2.71;77.43;103303.81;7391073;19;20023;-62
2024/01/28 08:10:14;;;;;;;30.75;21.02;;;;;;;2.71;77.44;103302.91;7391670;19;20490;-62
2024/01/28 08:12:45;;;;;;;24.83;13.82;;;;;;;2.80;77.13;103287.25;7390032;19;20129;-62
2024/01/28 08:15:15;;;;;;;20.30;10.85;;;;;;;2.94;77.20;103290.72;7389174;19;20019;-62
2024/01/28 08:17:48;;;;;;;14.05;6.35;;;;;;;3.16;76.49;103284.56;7390443;19;20503;-61
2024/01/28 08:20:18;;;;;;;24.08;11.27;;;;;;;3.36;75.62;103289.78;7391779;19;20019;-64
2024/01/28 08:22:47;;;;;;;15.55;6.18;;;;;;;3.45;75.30;103282.75;7391990;19;20026;-64
2024/01/28 08:25:16;;;;;;;16.55;5.45;;;;;;;3.48;74.72;103285.38;7389777;19;20021;-63
2024/01/28 08:27:46;;;;;;;13.63;5.15;;;;;;;3.46;75.32;103285.38;7390931;19;20356;-63
2024/01/28 08:30:17;;;;;;;14.50;4.55;;;;;;;3.48;75.12;103286.25;7392136;19;20021;-63
2024/01/28 08:32:45;;;;;;;14.02;4.20;;;;;;;3.72;74.68;103293.13;7391184;19;20018;-61
2024/01/28 08:35:17;;;;;;;11.20;3.90;;;;;;;3.84;73.64;103298.31;7388652;19;20088;-62
2024/01/28 08:37:46;;;;;;;15.50;4.20;;;;;;;3.83;73.52;103295.72;7390481;19;20025;-62
2024/01/28 08:40:15;;;;;;;14.23;4.03;;;;;;;3.77;73.69;103290.50;7390166;19;20011;-61
2024/01/28 08:42:45;;;;;;;12.85;4.38;;;;;;;3.75;73.84;103300.13;7390192;19;20015;-61
2024/01/28 08:45:14;;;;;;;15.52;4.53;;;;;;;3.87;73.34;103286.97;7394583;19;20010;-62
2024/01/28 08:47:45;;;;;;;14.10;4.15;;;;;;;3.98;72.90;103287.78;7397745;19;20040;-59
2024/01/28 08:50:16;;;;;;;14.57;4.10;;;;;;;4.01;72.84;103274.66;7398101;19;20018;-62
2024/01/28 08:52:45;;;;;;;13.45;4.13;;;;;;;4.10;72.65;103289.47;7397423;19;20032;-62
2024/01/28 08:55:15;;;;;;;16.63;4.13;;;;;;;4.11;72.06;103289.44;7395093;19;20096;-61
2024/01/28 08:57:44;;;;;;;11.05;3.65;;;;;;;4.20;72.11;103282.38;7397319;19;20022;-61
2024/01/28 09:00:16;;;;;;;10.60;3.88;;;;;;;4.26;71.71;103287.63;7395778;19;20026;-61
2024/01/28 09:02:45;;;;;;;11.32;4.05;;;;;;;4.22;71.56;103275.41;7397415;19;20047;-60
2024/01/28 09:05:15;;;;;;;10.65;3.50;;;;;;;4.32;71.50;103275.34;7392874;19;20039;-61
2024/01/28 09:07:45;;;;;;;11.68;4.10;;;;;;;4.38;71.34;103267.41;7396707;19;20493;-61
2024/01/28 09:10:18;;;;;;;15.10;5.90;;;;;;;4.50;71.23;103271.72;7397147;19;20014;-61
2024/01/28 09:12:48;;;;;;;15.18;5.10;;;;;;;4.45;71.00;103283.97;7396900;19;20011;-61
2024/01/28 09:15:19;;;;;;;14.63;5.18;;;;;;;4.56;71.12;103279.53;7394393;19;20015;-61
2024/01/28 09:17:48;;;;;;;14.07;4.55;;;;;;;4.67;70.68;103281.19;7396696;19;20045;-62
2024/01/28 09:20:18;;;;;;;14.35;4.40;;;;;;;4.68;70.80;103285.56;7396754;19;20015;-62
2024/01/28 09:22:48;;;;;;;11.82;4.22;;;;;;;4.80;70.54;103285.44;7396677;19;20010;-62
2024/01/28 09:25:18;;;;;;;12.40;3.65;;;;;;;4.77;70.35;103289.00;7394207;19;20015;-61
2024/01/28 09:27:48;;;;;;;14.05;4.53;;;;;;;4.88;69.82;103295.03;7396204;19;20014;-62
2024/01/28 09:30:19;;;;;;;12.00;4.03;;;;;;;4.79;70.00;103292.47;7396358;19;20507;-62
2024/01/28 09:32:48;;;;;;;11.07;4.10;;;;;;;4.82;69.62;103279.31;7396512;19;20014;-62
2024/01/28 09:35:18;;;;;;;15.00;4.80;;;;;;;4.82;69.76;103281.94;7392410;19;20018;-62
2024/01/28 09:37:48;;;;;;;16.00;4.53;;;;;;;4.75;69.73;103271.50;7395732;19;20022;-61
2024/01/28 09:40:19;;;;;;;16.88;4.85;;;;;;;4.77;70.08;103275.88;7395647;19;20031;-62
2024/01/28 09:42:51;;;;;;;10.40;3.88;;;;;;;4.83;69.95;103278.41;7396038;19;20033;-62
2024/01/28 09:45:21;;;;;;;13.00;4.10;;;;;;;4.99;69.37;103279.13;7393668;19;20029;-61
2024/01/28 09:47:54;;;;;;;11.75;4.05;;;;;;;4.96;69.23;103279.19;7395801;19;20089;-62
2024/01/28 09:50:25;;;;;;;12.38;3.72;;;;;;;4.99;69.17;103270.41;7396015;19;20021;-62
2024/01/28 09:52:56;;;;;;;16.85;5.10;;;;;;;5.16;68.68;103265.88;7396057;19;20081;-62
2024/01/28 09:55:26;;;;;;;17.55;4.72;;;;;;;5.26;67.84;103261.34;7392143;19;20373;-62
2024/01/28 09:57:57;;;;;;;11.05;3.78;;;;;;;5.31;67.99;103260.44;7395940;19;20011;-63
2024/01/28 10:00:29;;;;;;;12.18;3.90;;;;;;;5.33;67.37;103261.28;7395281;19;20021;-63
2024/01/28 10:02:59;;;;;;;11.48;3.92;;;;;;;5.45;67.46;103265.50;7393840;19;20014;-61
2024/01/28 10:05:35;;;;;;;12.77;4.55;;;;;;;5.59;67.41;103268.00;7392845;19;20381;-63
2024/01/28 10:08:06;;;;;;;17.05;4.47;;;;;;;5.54;66.99;103267.19;7394807;19;20019;-64
2024/01/28 10:10:39;;;;;;;13.05;4.28;;;;;;;5.55;66.76;103267.16;7395155;19;20092;-64
2024/01/28 10:13:09;;;;;;;15.55;4.72;;;;;;;5.61;66.83;103264.47;7394829;19;20018;-65
2024/01/28 10:15:40;;;;;;;14.82;5.38;;;;;;;5.60;66.40;103273.22;7392375;19;20479;-65
2024/01/28 10:18:10;;;;;;;14.77;5.32;;;;;;;5.59;67.02;103270.63;7395133;19;20014;-65
2024/01/28 10:20:41;;;;;;;14.48;4.57;;;;;;;5.59;66.28;103279.38;7393902;19;20028;-64
2024/01/28 10:23:11;;;;;;;18.42;6.50;;;;;;;5.57;66.73;103268.03;7394457;19;20037;-64
2024/01/28 10:25:41;;;;;;;13.10;4.55;;;;;;;5.63;65.89;103264.44;7390845;19;20331;-64
2024/01/28 10:28:11;;;;;;;18.27;6.57;;;;;;;5.69;66.28;103256.47;7392426;19;20043;-64
2024/01/28 10:30:41;;;;;;;15.63;5.30;;;;;;;5.78;66.49;103264.25;7394153;19;20019;-64
2024/01/28 10:33:12;;;;;;;10.57;4.35;;;;;;;5.72;65.81;103260.81;7394352;19;20086;-64
2024/01/28 10:35:45;;;;;;;14.60;3.58;;;;;;;5.74;66.14;103259.03;7391616;19;20010;-64
2024/01/28 10:38:20;;;;;;;12.82;3.63;;;;;;;5.76;65.81;103258.16;7394296;19;20459;-64
2024/01/28 10:40:51;;;;;;;14.07;3.75;;;;;;;5.73;65.90;103260.81;7392003;19;20432;-64
2024/01/28 10:43:26;;;;;;;11.93;4.07;;;;;;;5.72;65.88;103255.56;7393628;19;20018;-64
2024/01/28 10:46:00;;;;;;;11.35;3.70;;;;;;;5.78;66.05;103260.75;7392198;19;20371;-64
2024/01/28 10:48:41;;;;;;;11.63;4.38;;;;;;;5.71;65.95;103248.56;7392550;19;20026;-64
2024/01/28 10:51:13;;;;;;;;;;;;;;;5.65;65.34;103248.63;7392852;19;20344;-64
2024/01/28 10:53:45;;;;;;;10.70;4.20;;;;;;;5.62;66.08;103228.53;7391193;19;19930;-64
2024/01/28 10:56:16;;;;;;;12.30;4.00;;;;;;;5.90;65.97;103250.06;7393982;19;20018;-63
2024/01/28 10:58:48;;;;;;;12.75;3.58;;;;;;;6.02;65.67;103241.16;7392248;19;20023;-63
2024/01/28 11:01:19;;;;;;;12.65;3.72;;;;;;;6.01;65.26;103242.91;7393212;19;20027;-64
2024/01/28 11:03:50;;;;;;;12.63;3.90;;;;;;;6.12;64.79;103242.75;7392024;19;20015;-64
2024/01/28 11:06:20;;;;;;;11.05;3.72;;;;;;;6.05;64.47;103225.34;7391361;19;20043;-64
2024/01/28 11:08:54;;;;;;;13.98;4.10;;;;;;;6.22;64.44;103246.09;7393047;19;20018;-64
2024/01/28 11:11:24;;;;;;;13.25;4.57;;;;;;;6.23;63.99;103226.81;7393276;19;20035;-64
2024/01/28 11:14:10;;;;;;;8.80;3.50;;;;;;;6.35;63.85;103216.09;7390817;19;20030;-64
2024/01/28 11:16:50;;;;;;;9.80;3.63;;;;;;;6.28;63.99;103220.59;7392777;19;20015;-64
2024/01/28 11:19:27;;;;;;;11.68;3.53;;;;;;;6.39;63.95;103223.03;7392620;19;20547;-64
2024/01/28 11:22:02;;;;;;;12.50;3.47;;;;;;;6.41;63.45;103213.38;7391772;19;20028;-64
2024/01/28 11:24:48;;;;;;;12.88;3.17;;;;;;;6.40;63.80;103206.34;7390956;19;20100;-64
2024/01/28 11:27:20;;;;;;;9.45;3.53;;;;;;;6.47;63.45;103193.97;7392528;19;20019;-64
2024/01/28 11:29:57;;;;;;;10.80;3.53;;;;;;;6.63;63.31;103184.91;7392760;19;20017;-63
2024/01/28 11:32:33;;;;;;;10.23;2.97;;;;;;;6.58;63.44;103184.13;7392688;19;20086;-64
2024/01/28 11:35:04;;;;;;;13.35;3.80;;;;;;;6.60;63.50;103179.69;7388866;19;20547;-64
2024/01/28 11:37:57;;;;;;;12.95;3.90;;;;;;;6.64;62.46;103181.38;7392255;19;20407;-63
2024/01/28 11:40:35;;;;;;;10.35;3.10;;;;;;;6.67;62.59;103181.31;7392419;19;20037;-64
2024/01/28 11:43:07;;;;;;;9.38;3.30;;;;;;;6.72;62.62;103170.72;7390398;19;20491;-62